Home > Products > Valid Products > TAF

000
FTUS43 KIND 042027 AAB
TAFIND
TAF AMD
KIND 042027Z 0420/0524 25008KT P6SM SCT050
     FM050000 VRB03KT P6SM BKN250
     FM051500 21006KT P6SM SCT060=



000
FTUS43 KIND 041832 AAA
TAFLAF
TAF AMD
KLAF 041832Z 0419/0518 25007KT P6SM VCTS SCT050CB
     FM050000 00000KT P6SM BKN250
     FM050900 00000KT 3SM BR MIFG SCT250
     FM051300 24005KT P6SM SCT060=



000
FTUS43 KIND 041720
TAFIND
TAF
KIND 041720Z 0418/0524 25008KT P6SM SCT050
     FM050000 VRB03KT P6SM BKN250
     FM051500 21006KT P6SM SCT060=



000
FTUS43 KIND 041720
TAFLAF
TAF
KLAF 041720Z 0418/0518 25006KT P6SM SCT050
     FM050000 00000KT P6SM BKN250
     FM050900 00000KT 3SM BR MIFG SCT250
     FM051300 24005KT P6SM SCT060=



000
FTUS43 KIND 041720
TAFLAF
TAF
KLAF 041720Z 0418/0518 25006KT P6SM SCT050
     FM050000 00000KT P6SM BKN250
     FM050900 00000KT 3SM BR MIFG SCT250
     FM051300 24005KT P6SM SCT060=



000
FTUS43 KIND 041427 AAA
TAFIND
TAF AMD
KIND 041427Z 0414/0518 24007KT P6SM SCT060
     FM041800 23010KT P6SM SCT050
     FM050000 VRB04KT P6SM BKN250
     FM051500 20006KT P6SM BKN120=



000
FTUS43 KIND 041427 AAA
TAFIND
TAF AMD
KIND 041427Z 0414/0518 24007KT P6SM SCT060
     FM041800 23010KT P6SM SCT050
     FM050000 VRB04KT P6SM BKN250
     FM051500 20006KT P6SM BKN120=



000
FTUS43 KIND 041120
TAFIND
TAF
KIND 041120Z 0412/0518 23006KT P6SM FEW060
      TEMPO 0412/0413 5SM BR
     FM041500 22005KT P6SM FEW030
     FM041800 23010KT P6SM SCT040
     FM050000 VRB04KT P6SM BKN250
     FM051500 20006KT P6SM BKN120=



000
FTUS43 KIND 041120
TAFLAF
TAF
KLAF 041120Z 0412/0512 00000KT 3SM BR SKC
      TEMPO 0412/0413 1/2SM FG VV004
     FM041300 23005KT P6SM FEW030
     FM041800 23008KT P6SM SCT040
     FM050000 00000KT P6SM BKN250
     FM050900 00000KT 3SM BR SCT250
      AMD LTD TO CLD VIS AND WIND TIL 041300=



000
FTUS43 KIND 041120
TAFIND
TAF
KIND 041120Z 0412/0518 23006KT P6SM FEW060
      TEMPO 0412/0413 5SM BR
     FM041500 22005KT P6SM FEW030
     FM041800 23010KT P6SM SCT040
     FM050000 VRB04KT P6SM BKN250
     FM051500 20006KT P6SM BKN120=



000
FTUS43 KIND 041120
TAFLAF
TAF
KLAF 041120Z 0412/0512 00000KT 3SM BR SKC
      TEMPO 0412/0413 1/2SM FG VV004
     FM041300 23005KT P6SM FEW030
     FM041800 23008KT P6SM SCT040
     FM050000 00000KT P6SM BKN250
     FM050900 00000KT 3SM BR SCT250
      AMD LTD TO CLD VIS AND WIND TIL 041300=



000
FTUS43 KIND 040944 AAA
TAFLAF
TAF AMD
KLAF 040944Z 0410/0506 00000KT 3SM BR SKC
      TEMPO 0410/0412 1/2SM FG VV005
     FM041500 23005KT P6SM FEW030
     FM041800 23008KT P6SM SCT040
     FM050000 00000KT P6SM BKN250
      AMD LTD TO CLD VIS AND WIND TIL 041300=



000
FTUS43 KIND 040805 AAB
TAFIND
TAF AMD
KIND 040805Z 0408/0512 23003KT P6SM FEW060
      TEMPO 0411/0413 5SM BR
     FM041500 22005KT P6SM FEW030
     FM041800 23010KT P6SM SCT040
     FM050000 VRB04KT P6SM BKN250=



000
FTUS43 KIND 040520
TAFLAF
TAF
KLAF 040520Z 0406/0506 00000KT 6SM BR FEW060
      TEMPO 0409/0412 5SM BR
     FM041500 23005KT P6SM FEW030
     FM041800 23008KT P6SM SCT040
     FM050000 00000KT P6SM BKN250
      AMD LTD TO CLD VIS AND WIND TIL 041300=



000
FTUS43 KIND 040520
TAFIND
TAF
KIND 040520Z 0406/0512 23004KT P6SM FEW060
      TEMPO 0411/0413 5SM BR
     FM041500 22005KT P6SM FEW030
     FM041800 23010KT P6SM SCT040
     FM050000 VRB04KT P6SM BKN250=



000
FTUS43 KIND 040216 AAA
TAFIND
TAF AMD
KIND 040216Z 0402/0506 23005KT P6SM SCT250
     FM040700 22005KT P6SM SCT080 BKN250
      TEMPO 0410/0412 5SM BR
     FM041300 24007KT P6SM SCT040=



000
FTUS43 KIND 040216 AAA
TAFIND
TAF AMD
KIND 040216Z 0402/0506 23005KT P6SM SCT250
     FM040700 22005KT P6SM SCT080 BKN250
      TEMPO 0410/0412 5SM BR
     FM041300 24007KT P6SM SCT040=



000
FTUS43 KIND 032320
TAFLAF
TAF
KLAF 032320Z 0400/0424 27009KT P6SM SCT250
     FM040100 24004KT P6SM SCT250
     FM040700 00000KT 3SM BR SCT070 BKN250
     FM041300 24006KT P6SM SCT040
      AMD LTD TO CLD VIS AND WIND 0401/0413=



000
FTUS43 KIND 032320
TAFIND
TAF
KIND 032320Z 0400/0506 21010KT P6SM SCT050 SCT080
     FM040100 23005KT P6SM SCT250
     FM040700 22005KT P6SM SCT080 BKN250
      TEMPO 0410/0412 5SM BR
     FM041300 24007KT P6SM SCT040=



000
FTUS43 KIND 032025 AAA
TAFIND
TAF AMD
KIND 032025Z 0320/0424 25010KT P6SM SCT040
     FM040100 23005KT P6SM SCT250
     FM040700 22005KT P6SM SCT080 BKN250
      TEMPO 0410/0412 5SM BR=



000
FTUS43 KIND 032025 AAA
TAFIND
TAF AMD
KIND 032025Z 0320/0424 25010KT P6SM SCT040
     FM040100 23005KT P6SM SCT250
     FM040700 22005KT P6SM SCT080 BKN250
      TEMPO 0410/0412 5SM BR=



000
FTUS43 KIND 031728
TAFIND
TAF
KIND 031728Z 0318/0424 25010KT P6SM SCT040
     FM040100 23005KT P6SM SCT250
     FM040700 22005KT P6SM SCT080 BKN250
      TEMPO 0410/0412 5SM BR=



000
FTUS43 KIND 031728
TAFLAF
TAF
KLAF 031728Z 0318/0418 25009G15KT P6SM SCT040
     FM040100 24004KT P6SM SCT250
     FM040700 00000KT 3SM BR BCFG SCT080 BKN250
     FM041300 24006KT P6SM SCT040=



000
FTUS43 KIND 031728
TAFLAF
TAF
KLAF 031728Z 0318/0418 25009G15KT P6SM SCT040
     FM040100 24004KT P6SM SCT250
     FM040700 00000KT 3SM BR BCFG SCT080 BKN250
     FM041300 24006KT P6SM SCT040=



000
FTUS43 KIND 031728
TAFIND
TAF
KIND 031728Z 0318/0424 25010KT P6SM SCT040
     FM040100 23005KT P6SM SCT250
     FM040700 22005KT P6SM SCT080 BKN250
      TEMPO 0410/0412 5SM BR=



000
FTUS43 KIND 031443 AAB
TAFIND
TAF AMD
KIND 031443Z 0315/0418 25007KT P6SM SCT030 SCT100
     FM040100 23004KT P6SM SCT250
     FM040700 00000KT P6SM SCT080 BKN250
      TEMPO 0410/0412 5SM BR=



000
FTUS43 KIND 031126
TAFLAF
TAF
KLAF 031126Z 0312/0412 22005KT P6SM FEW100
      TEMPO 0312/0314 4SM BR
     FM031500 26008KT P6SM SCT030 SCT100 SCT250
     FM040100 24004KT P6SM SCT250
     FM040700 00000KT 4SM BR SCT080 BKN250
      AMD LTD TO CLD VIS AND WIND TIL 031300=



000
FTUS43 KIND 031126
TAFLAF
TAF
KLAF 031126Z 0312/0412 22005KT P6SM FEW100
      TEMPO 0312/0314 4SM BR
     FM031500 26008KT P6SM SCT030 SCT100 SCT250
     FM040100 24004KT P6SM SCT250
     FM040700 00000KT 4SM BR SCT080 BKN250
      AMD LTD TO CLD VIS AND WIND TIL 031300=



000
FTUS43 KIND 031126
TAFIND
TAF
KIND 031126Z 0312/0418 25005KT P6SM FEW100
      TEMPO 0312/0314 5SM BR
     FM031500 27007KT P6SM SCT030 SCT100 SCT250
     FM040100 23004KT P6SM SCT250
     FM040700 00000KT P6SM SCT080 BKN250
      TEMPO 0410/0412 5SM BR=



000
FTUS43 KIND 030827 AAC
TAFIND
TAF AMD
KIND 030827Z 0308/0412 24003KT P6SM SCT100
      TEMPO 0309/0313 5SM BR
     FM031500 23005KT P6SM SCT030 BKN150
     FM031800 25008KT P6SM BKN040 PROB30 0318/0324 5SM TSRA BKN040CB
     FM040000 VRB03KT P6SM SCT100=



000
FTUS43 KIND 030826 AAB
TAFIND
TAF AMD
KIND 030826Z 0308/0412 24003KT P6SM SCT100
     FM031500 23005KT P6SM SCT030 BKN150
     FM031800 25008KT P6SM BKN040 PROB30 0318/0324 5SM TSRA BKN040CB
     FM040000 VRB03KT P6SM SCT100=



000
FTUS43 KIND 030524
TAFLAF
TAF
KLAF 030524Z 0306/0406 25003KT P6SM SCT150
     FM030900 00000KT 5SM BR SCT150
     FM031200 00000KT P6SM SCT150
     FM031500 23005KT P6SM SCT030 BKN150
     FM031800 25008KT P6SM BKN040 PROB30 0318/0323 5SM TSRA BKN040CB
     FM032300 00000KT P6SM SCT100
      AMD LTD TO CLD VIS AND WIND TIL 031300=



000
FTUS43 KIND 030524
TAFIND
TAF
KIND 030524Z 0306/0412 25003KT P6SM SCT150
     FM031500 23005KT P6SM SCT030 BKN150
     FM031800 25008KT P6SM BKN040 PROB30 0318/0324 5SM TSRA BKN040CB
     FM040000 VRB03KT P6SM SCT100=



000
FTUS43 KIND 030220 AAA
TAFIND
TAF AMD
KIND 030220Z 0302/0406 24004KT P6SM SCT250
     FM030700 25003KT P6SM SCT150
      TEMPO 0310/0312 5SM BR
     FM031500 25008KT P6SM SCT040 BKN150=



000
FTUS43 KIND 030220 AAA
TAFIND
TAF AMD
KIND 030220Z 0302/0406 24004KT P6SM SCT250
     FM030700 25003KT P6SM SCT150
      TEMPO 0310/0312 5SM BR
     FM031500 25008KT P6SM SCT040 BKN150=



000
FTUS43 KIND 022320
TAFLAF
TAF
KLAF 022320Z 0300/0324 24006KT P6SM FEW050
     FM030100 23003KT P6SM SCT250
     FM030800 00000KT 4SM BR SCT150
     FM031300 25004KT P6SM SCT050 SCT150
      AMD LTD TO CLD VIS AND WIND 0301/0313=



000
FTUS43 KIND 022320
TAFLAF
TAF
KLAF 022320Z 0300/0324 24006KT P6SM FEW050
     FM030100 23003KT P6SM SCT250
     FM030800 00000KT 4SM BR SCT150
     FM031300 25004KT P6SM SCT050 SCT150
      AMD LTD TO CLD VIS AND WIND 0301/0313=



000
FTUS43 KIND 022320
TAFIND
TAF
KIND 022320Z 0300/0406 22010KT P6SM FEW050
     FM030100 24004KT P6SM SCT250
     FM030700 25003KT P6SM SCT150
      TEMPO 0310/0312 5SM BR
     FM031500 25008KT P6SM SCT040 BKN150=



000
FTUS43 KIND 022320
TAFIND
TAF
KIND 022320Z 0300/0406 22010KT P6SM FEW050
     FM030100 24004KT P6SM SCT250
     FM030700 25003KT P6SM SCT150
      TEMPO 0310/0312 5SM BR
     FM031500 25008KT P6SM SCT040 BKN150=



000
FTUS43 KIND 022026 AAA
TAFIND
TAF AMD
KIND 022026Z 0220/0324 26010KT P6SM SCT050
     FM030100 24004KT P6SM SCT250
     FM030700 25003KT P6SM SCT150
      TEMPO 0310/0312 5SM BR
     FM031500 25008KT P6SM SCT040 BKN150=



000
FTUS43 KIND 021720
TAFLAF
TAF
KLAF 021720Z 0218/0318 25007KT P6SM SCT045
     FM030100 23003KT P6SM SCT250
     FM030800 00000KT 4SM BR SCT150
     FM031400 25007KT P6SM SCT035 BKN150=



000
FTUS43 KIND 021720
TAFIND
TAF
KIND 021720Z 0218/0324 26010KT P6SM SCT050
     FM030100 24004KT P6SM SCT250
     FM030700 25003KT P6SM SCT150
      TEMPO 0310/0312 5SM BR
     FM031500 25008KT P6SM SCT040 BKN150=



000
FTUS43 KIND 021720
TAFLAF
TAF
KLAF 021720Z 0218/0318 25007KT P6SM SCT045
     FM030100 23003KT P6SM SCT250
     FM030800 00000KT 4SM BR SCT150
     FM031400 25007KT P6SM SCT035 BKN150=



000
FTUS43 KIND 021720
TAFIND
TAF
KIND 021720Z 0218/0324 26010KT P6SM SCT050
     FM030100 24004KT P6SM SCT250
     FM030700 25003KT P6SM SCT150
      TEMPO 0310/0312 5SM BR
     FM031500 25008KT P6SM SCT040 BKN150=



000
FTUS43 KIND 021413 AAA
TAFIND
TAF AMD
KIND 021413Z 0214/0318 24005KT P6SM FEW080
     FM021600 26007KT P6SM SCT050 SCT250
     FM030100 25004KT P6SM SCT250
     FM030700 22004KT P6SM FEW060 BKN250
      TEMPO 0310/0312 5SM BR=



000
FTUS43 KIND 021121
TAFIND
TAF
KIND 021121Z 0212/0318 23005KT P6SM FEW060
      TEMPO 0212/0214 4SM BR
     FM021500 26007KT P6SM SCT030 SCT250
     FM030100 25004KT P6SM SCT250
     FM030700 22004KT P6SM FEW060 BKN250
      TEMPO 0310/0312 5SM BR=



000
FTUS43 KIND 021121
TAFLAF
TAF
KLAF 021121Z 0212/0312 22005KT P6SM SCT060
      TEMPO 0212/0214 4SM BR
     FM021500 26008KT P6SM SCT030 SCT250
     FM030100 24004KT P6SM SCT250
     FM030800 22003KT 5SM BR FEW060 BKN250
      AMD LTD TO CLD VIS AND WIND TIL 021300=



000
FTUS43 KIND 021121
TAFLAF
TAF
KLAF 021121Z 0212/0312 22005KT P6SM SCT060
      TEMPO 0212/0214 4SM BR
     FM021500 26008KT P6SM SCT030 SCT250
     FM030100 24004KT P6SM SCT250
     FM030800 22003KT 5SM BR FEW060 BKN250
      AMD LTD TO CLD VIS AND WIND TIL 021300=



000
FTUS43 KIND 021121
TAFIND
TAF
KIND 021121Z 0212/0318 23005KT P6SM FEW060
      TEMPO 0212/0214 4SM BR
     FM021500 26007KT P6SM SCT030 SCT250
     FM030100 25004KT P6SM SCT250
     FM030700 22004KT P6SM FEW060 BKN250
      TEMPO 0310/0312 5SM BR=



000
FTUS43 KIND 020823 AAA
TAFLAF
TAF AMD
KLAF 020823Z 0208/0306 21003KT 4SM BR SCT060
     FM021500 26007KT P6SM SCT040
     FM030100 00000KT P6SM FEW040=



000
FTUS43 KIND 020822 AAA
TAFIND
TAF AMD
KIND 020822Z 0208/0312 22004KT P6SM FEW060
     FM021500 26008KT P6SM SCT040
     FM030100 24004KT P6SM FEW040=



000
FTUS43 KIND 020521
TAFLAF
TAF
KLAF 020521Z 0206/0306 00000KT P6SM FEW040
     FM021500 26007KT P6SM SCT040
     FM030100 00000KT P6SM FEW040=



000
FTUS43 KIND 020521
TAFIND
TAF
KIND 020521Z 0206/0312 22004KT P6SM FEW040
     FM021500 26008KT P6SM SCT040
     FM030100 24004KT P6SM FEW040=



000
FTUS43 KIND 020521
TAFIND
TAF
KIND 020521Z 0206/0312 22004KT P6SM FEW040
     FM021500 26008KT P6SM SCT040
     FM030100 24004KT P6SM FEW040=



000
FTUS43 KIND 020521
TAFLAF
TAF
KLAF 020521Z 0206/0306 00000KT P6SM FEW040
     FM021500 26007KT P6SM SCT040
     FM030100 00000KT P6SM FEW040=



000
FTUS43 KIND 020213 AAA
TAFIND
TAF AMD
KIND 020213Z 0202/0306 22004KT P6SM FEW040
     FM021500 26008KT P6SM SCT040
     FM030100 24004KT P6SM FEW040=



000
FTUS43 KIND 012322
TAFIND
TAF
KIND 012322Z 0200/0306 25007KT P6SM SCT040 BKN120
     FM020100 22004KT P6SM FEW040
     FM021500 26008KT P6SM SCT040
     FM030100 24004KT P6SM FEW040=



000
FTUS43 KIND 012322
TAFLAF
TAF
KLAF 012322Z 0200/0224 25003KT P6SM SCT040 BKN120
     FM020100 00000KT P6SM FEW040
     FM021500 26007KT P6SM SCT040=



    US Dept of Commerce
    National Oceanic and Atmospheric Administration
    National Weather Service
    1325 East West Highway
    Silver Spring, MD 20910
    Page Author: NWS Internet Services Team
Disclaimer
Information Quality
Credits
Glossary
Privacy Policy
Freedom of Information Act (FOIA)
About Us
Career Opportunities